Terminal Aerodrome Forecast
Issued by NWS Grand Forks, ND

Home | Current Version | Previous Version | Graphics & Text | Print | Product List | Glossary On
Versions: 1 2 3 4 5 6 7 8 9 10 11 12 13 14
000
FTUS43 KFGF 281700
TAFGFK
TAF
KGFK 281732Z 2818/0118 19014KT P6SM BKN070
     FM010200 23010KT P6SM BKN120
     FM011200 25010KT P6SM BKN100
     FM011500 27009KT 5SM -SN BKN025=

USA.gov is the U.S. government's official web portal to all federal, state and local government web resources and services.